createdAt,value
2022-11-09T00:00:26.232Z,0
2022-11-09T00:02:33.562Z,0
2022-11-09T00:03:36.556Z,0
2022-11-09T00:05:42.319Z,0
2022-11-09T00:07:48.721Z,0
2022-11-09T00:09:55.105Z,0
2022-11-09T00:10:58.535Z,0
2022-11-09T00:13:05.918Z,0
2022-11-09T00:15:12.245Z,0
2022-11-09T00:17:17.795Z,0
2022-11-09T00:18:21.093Z,0
2022-11-09T00:20:27.796Z,0
2022-11-09T00:22:33.842Z,0
2022-11-09T00:24:39.733Z,0
2022-11-09T00:25:42.270Z,0
2022-11-09T00:27:49.009Z,0
2022-11-09T00:29:55.355Z,0
2022-11-09T00:30:58.098Z,0
2022-11-09T00:33:03.264Z,0
2022-11-09T00:35:08.701Z,0
2022-11-09T00:37:14.563Z,0
2022-11-09T00:38:17.703Z,0
2022-11-09T00:40:23.665Z,0
2022-11-09T00:42:30.117Z,0
2022-11-09T00:43:33.918Z,0
2022-11-09T00:44:37.438Z,0
2022-11-09T00:45:40.620Z,0
2022-11-09T00:47:46.325Z,0
2022-11-09T00:49:53.100Z,0
2022-11-09T00:50:55.561Z,0
2022-11-09T00:53:02.138Z,0
2022-11-09T00:55:08.006Z,0
2022-11-09T00:56:11.425Z,0
2022-11-09T00:57:14.417Z,0
2022-11-09T00:58:17.861Z,0
2022-11-09T01:00:24.317Z,0
2022-11-09T01:02:30.900Z,0
2022-11-09T01:03:33.625Z,0
2022-11-09T01:05:39.444Z,0
2022-11-09T01:07:46.181Z,0
2022-11-09T01:08:49.484Z,0
2022-11-09T01:09:51.643Z,0
2022-11-09T01:10:54.998Z,0
2022-11-09T01:13:01.063Z,0
2022-11-09T01:15:06.645Z,0
2022-11-09T01:16:10.661Z,0
2022-11-09T01:18:16.616Z,0
2022-11-09T01:20:21.949Z,0
2022-11-09T01:21:25.240Z,0
2022-11-09T01:22:28.029Z,0
2022-11-09T01:23:31.732Z,0
2022-11-09T01:25:37.405Z,0
2022-11-09T01:27:43.641Z,0
2022-11-09T01:28:46.662Z,0
2022-11-09T01:30:53.290Z,0
2022-11-09T01:32:59.567Z,0
2022-11-09T01:35:05.692Z,0
2022-11-09T01:36:08.872Z,0
2022-11-09T01:38:15.521Z,0
2022-11-09T01:40:22.530Z,0
2022-11-09T01:41:25.802Z,0
2022-11-09T01:42:28.904Z,0
2022-11-09T01:43:32.001Z,0
2022-11-09T01:45:38.267Z,0
2022-11-09T01:46:41.430Z,0
2022-11-09T01:48:47.966Z,0
2022-11-09T01:50:53.756Z,0
2022-11-09T01:51:56.632Z,0
2022-11-09T01:54:02.258Z,0
2022-11-09T01:56:08.470Z,0
2022-11-09T01:57:12.199Z,0
2022-11-09T01:59:18.466Z,0
2022-11-09T02:01:25.285Z,0
2022-11-09T02:02:28.779Z,0
2022-11-09T02:03:32.218Z,0
2022-11-09T02:04:35.006Z,0
2022-11-09T02:06:40.911Z,0
2022-11-09T02:07:44.081Z,0
2022-11-09T02:09:49.876Z,0
2022-11-09T02:11:54.993Z,0
2022-11-09T02:14:00.921Z,0
2022-11-09T02:15:03.906Z,0
2022-11-09T02:17:09.666Z,0
2022-11-09T02:19:16.283Z,0
2022-11-09T02:20:20.060Z,0
2022-11-09T02:21:22.867Z,0
2022-11-09T02:22:26.063Z,0
2022-11-09T02:24:31.784Z,0
2022-11-09T02:26:37.687Z,0
2022-11-09T02:27:40.759Z,0
2022-11-09T02:29:46.997Z,0
2022-11-09T02:31:53.054Z,0
2022-11-09T02:33:59.459Z,0
2022-11-09T02:35:02.867Z,0
2022-11-09T02:37:08.761Z,0
2022-11-09T02:39:14.186Z,0
2022-11-09T02:40:17.425Z,0
2022-11-09T02:41:20.498Z,0
2022-11-09T02:42:23.827Z,0
2022-11-09T02:44:29.606Z,0
2022-11-09T02:45:33.312Z,0
2022-11-09T02:46:36.333Z,0
2022-11-09T02:47:39.135Z,0
2022-11-09T02:49:45.275Z,0
2022-11-09T02:50:48.996Z,0
2022-11-09T02:51:51.998Z,0
2022-11-09T02:52:54.706Z,0
2022-11-09T02:55:00.673Z,0
2022-11-09T02:56:03.840Z,0
2022-11-09T02:57:07.545Z,0
2022-11-09T02:58:10.376Z,0
2022-11-09T03:00:15.805Z,0
2022-11-09T03:02:22.965Z,0
2022-11-09T03:03:25.965Z,0
2022-11-09T03:05:31.696Z,0
2022-11-09T03:07:38.812Z,0
2022-11-09T03:09:45.459Z,0
2022-11-09T03:10:48.550Z,0
2022-11-09T03:12:54.095Z,0
2022-11-09T03:15:00.208Z,0
2022-11-09T03:16:02.995Z,0
2022-11-09T03:17:05.180Z,0
2022-11-09T03:18:08.634Z,0
2022-11-09T03:20:14.313Z,0
2022-11-09T03:21:17.050Z,0
2022-11-09T03:22:19.848Z,0
2022-11-09T03:23:23.795Z,0
2022-11-09T03:25:29.634Z,0
2022-11-09T03:26:32.442Z,0
2022-11-09T03:27:35.556Z,0
2022-11-09T03:28:37.989Z,0
2022-11-09T03:30:43.808Z,0
2022-11-09T03:32:52.329Z,0
2022-11-09T03:33:56.362Z,0
2022-11-09T03:36:02.870Z,0
2022-11-09T03:38:10.260Z,0
2022-11-09T03:40:16.781Z,0
2022-11-09T03:41:19.566Z,0
2022-11-09T03:43:25.431Z,0
2022-11-09T03:45:31.659Z,0
2022-11-09T03:47:37.716Z,0
2022-11-09T03:48:41.082Z,0
2022-11-09T03:50:46.627Z,0
2022-11-09T03:52:53.191Z,0
2022-11-09T03:54:59.629Z,0
2022-11-09T03:56:02.795Z,0
2022-11-09T03:58:08.781Z,0
2022-11-09T04:00:15.381Z,0
2022-11-09T04:02:21.859Z,0
2022-11-09T04:03:25.253Z,0
2022-11-09T04:05:30.040Z,0
2022-11-09T04:07:37.398Z,0
2022-11-09T04:09:43.399Z,0
2022-11-09T04:10:46.555Z,0
2022-11-09T04:12:52.723Z,0
2022-11-09T04:14:59.937Z,0
2022-11-09T04:17:05.318Z,0
2022-11-09T04:18:08.299Z,0
2022-11-09T04:20:14.373Z,0
2022-11-09T04:21:25.548Z,0
2022-11-09T04:22:28.634Z,0
2022-11-09T04:24:34.635Z,0
2022-11-09T04:25:38.258Z,0
2022-11-09T04:26:41.285Z,0
2022-11-09T04:27:43.516Z,0
2022-11-09T04:29:49.182Z,0
2022-11-09T04:30:52.561Z,0
2022-11-09T04:31:55.440Z,0
2022-11-09T04:32:58.598Z,0
2022-11-09T04:35:05.743Z,0
2022-11-09T04:36:08.548Z,0
2022-11-09T04:37:11.645Z,0
2022-11-09T04:38:14.109Z,0
2022-11-09T04:40:20.350Z,0
2022-11-09T04:42:26.039Z,0
2022-11-09T04:43:29.464Z,0
2022-11-09T04:45:34.565Z,0
2022-11-09T04:47:41.372Z,0
2022-11-09T04:49:47.072Z,0
2022-11-09T04:50:49.955Z,0
2022-11-09T04:52:55.621Z,0
2022-11-09T04:55:02.789Z,0
2022-11-09T04:56:04.716Z,0
2022-11-09T04:57:07.606Z,0
2022-11-09T04:58:10.684Z,0
2022-11-09T05:00:17.008Z,0
2022-11-09T05:02:22.596Z,0
2022-11-09T05:03:27.143Z,0
2022-11-09T05:05:33.732Z,0
2022-11-09T05:07:40.066Z,0
2022-11-09T05:09:46.534Z,0
2022-11-09T05:10:49.993Z,0
2022-11-09T05:12:56.230Z,0
2022-11-09T05:15:02.365Z,0
2022-11-09T05:17:07.415Z,0
2022-11-09T05:18:11.258Z,0
2022-11-09T05:20:17.551Z,0
2022-11-09T05:22:23.383Z,0
2022-11-09T05:24:29.134Z,0
2022-11-09T05:25:31.937Z,0
2022-11-09T05:27:37.797Z,0
2022-11-09T05:29:43.746Z,0
2022-11-09T05:31:54.290Z,0
2022-11-09T05:32:57.127Z,0
2022-11-09T05:35:02.888Z,0
2022-11-09T05:37:08.259Z,0
2022-11-09T05:39:14.782Z,0
2022-11-09T05:40:18.162Z,0
2022-11-09T05:42:23.419Z,0
2022-11-09T05:44:29.144Z,0
2022-11-09T05:45:47.558Z,0
2022-11-09T05:46:50.956Z,0
2022-11-09T05:47:54.578Z,0
2022-11-09T05:50:00.772Z,0
2022-11-09T05:52:06.963Z,0
2022-11-09T05:54:12.176Z,0
2022-11-09T05:55:15.167Z,0
2022-11-09T05:57:21.433Z,0
2022-11-09T05:59:28.741Z,0
2022-11-09T06:01:34.744Z,0
2022-11-09T06:02:38.633Z,0
2022-11-09T06:04:45.057Z,0
2022-11-09T06:06:51.424Z,0
2022-11-09T06:08:56.508Z,0
2022-11-09T06:09:59.507Z,0
2022-11-09T06:12:05.218Z,0
2022-11-09T06:14:11.681Z,0
2022-11-09T06:16:18.669Z,0
2022-11-09T06:17:21.032Z,0
2022-11-09T06:19:27.616Z,1
2022-11-09T06:21:33.972Z,1
2022-11-09T06:23:39.180Z,1
2022-11-09T06:24:42.263Z,1
2022-11-09T06:26:49.435Z,1
2022-11-09T06:28:56.335Z,2
2022-11-09T06:31:03.211Z,2
2022-11-09T06:32:06.822Z,3
2022-11-09T06:33:09.894Z,3
2022-11-09T06:34:12.119Z,3
2022-11-09T06:36:18.638Z,4
2022-11-09T06:37:21.835Z,4
2022-11-09T06:38:25.118Z,4
2022-11-09T06:39:28.325Z,4
2022-11-09T06:41:34.087Z,4
2022-11-09T06:42:37.694Z,4
2022-11-09T06:43:40.842Z,4
2022-11-09T06:44:43.359Z,4
2022-11-09T06:46:49.908Z,4
2022-11-09T06:47:53.631Z,4
2022-11-09T06:49:59.563Z,5
2022-11-09T06:52:04.530Z,6
2022-11-09T06:54:10.709Z,7
2022-11-09T06:55:14.471Z,8
2022-11-09T06:57:20.979Z,12
2022-11-09T06:59:27.594Z,15
2022-11-09T07:00:30.962Z,17
2022-11-09T07:01:34.935Z,17
2022-11-09T07:02:37.849Z,17
2022-11-09T07:04:43.721Z,16
2022-11-09T07:05:46.912Z,16
2022-11-09T07:06:50.845Z,16
2022-11-09T07:07:54.619Z,16
2022-11-09T07:10:00.456Z,16
2022-11-09T07:11:03.504Z,17
2022-11-09T07:13:10.031Z,18
2022-11-09T07:15:17.210Z,21
2022-11-09T07:17:23.789Z,24
2022-11-09T07:18:27.159Z,25
2022-11-09T07:20:33.268Z,28
2022-11-09T07:22:39.674Z,30
2022-11-09T07:24:46.491Z,33
2022-11-09T07:25:49.940Z,35
2022-11-09T07:27:57.024Z,42
2022-11-09T07:30:03.569Z,43
2022-11-09T07:32:09.581Z,47
2022-11-09T07:33:12.303Z,49
2022-11-09T07:35:18.993Z,46
2022-11-09T07:37:26.357Z,51
2022-11-09T07:39:32.861Z,53
2022-11-09T07:40:36.342Z,53
2022-11-09T07:42:42.295Z,57
2022-11-09T07:44:48.383Z,58
2022-11-09T07:46:54.760Z,59
2022-11-09T07:47:57.643Z,61
2022-11-09T07:50:03.370Z,73
2022-11-09T07:52:09.554Z,96
2022-11-09T07:54:15.824Z,109
2022-11-09T07:55:19.368Z,104
2022-11-09T07:57:26.078Z,91
2022-11-09T07:59:32.122Z,90
2022-11-09T08:00:35.595Z,91
2022-11-09T08:01:39.413Z,91
2022-11-09T08:02:43.201Z,92
2022-11-09T08:04:49.471Z,139
2022-11-09T08:05:52.884Z,165
2022-11-09T08:06:56.735Z,136
2022-11-09T08:07:59.896Z,103
2022-11-09T08:10:05.235Z,108
2022-11-09T08:11:08.349Z,123
2022-11-09T08:12:11.452Z,147
2022-11-09T08:13:15.068Z,178
2022-11-09T08:15:21.924Z,194
2022-11-09T08:16:25.261Z,255
2022-11-09T08:17:28.697Z,113
2022-11-09T08:18:33.341Z,99
2022-11-09T08:20:40.143Z,138
2022-11-09T08:22:45.793Z,207
2022-11-09T08:23:49.230Z,288
2022-11-09T08:25:55.449Z,209
2022-11-09T08:28:01.886Z,183
2022-11-09T08:30:08.438Z,203
2022-11-09T08:31:11.267Z,251
2022-11-09T08:33:18.012Z,244
2022-11-09T08:35:23.915Z,280
2022-11-09T08:37:30.983Z,208
2022-11-09T08:38:34.049Z,187
2022-11-09T08:40:40.127Z,143
2022-11-09T08:42:47.354Z,166
2022-11-09T08:44:54.015Z,189
2022-11-09T08:45:57.423Z,230
2022-11-09T08:48:03.568Z,163
2022-11-09T08:50:10.098Z,196
2022-11-09T08:52:17.296Z,179
2022-11-09T08:53:20.679Z,198
2022-11-09T08:55:26.636Z,153
2022-11-09T08:57:32.138Z,170
2022-11-09T08:59:37.630Z,164
2022-11-09T09:00:40.148Z,157
2022-11-09T09:02:46.990Z,257
2022-11-09T09:04:52.337Z,216
2022-11-09T09:06:59.486Z,198
2022-11-09T09:08:02.902Z,243
2022-11-09T09:10:08.690Z,242
2022-11-09T09:12:15.407Z,238
2022-11-09T09:14:21.634Z,215
2022-11-09T09:15:24.658Z,160
2022-11-09T09:16:26.950Z,147
2022-11-09T09:17:30.337Z,122
2022-11-09T09:19:37.039Z,104
2022-11-09T09:20:40.614Z,100
2022-11-09T09:21:44.307Z,94
2022-11-09T09:22:47.110Z,88
2022-11-09T09:24:52.942Z,84
2022-11-09T09:27:04.233Z,90
2022-11-09T09:28:07.022Z,97
2022-11-09T09:30:14.276Z,112
2022-11-09T09:32:24.369Z,122
2022-11-09T09:34:30.298Z,116
2022-11-09T09:35:33.400Z,114
2022-11-09T09:37:39.161Z,130
2022-11-09T09:39:45.545Z,163
2022-11-09T09:40:48.490Z,189
2022-11-09T09:42:55.815Z,333
2022-11-09T09:45:02.468Z,426
2022-11-09T09:46:05.970Z,479
2022-11-09T09:48:12.134Z,507
2022-11-09T09:49:15.063Z,412
2022-11-09T09:50:18.589Z,568
2022-11-09T09:51:21.403Z,496
2022-11-09T09:52:24.796Z,470
2022-11-09T09:53:27.920Z,229
2022-11-09T09:54:31.305Z,208
2022-11-09T09:56:37.757Z,154
2022-11-09T09:58:47.609Z,138
2022-11-09T09:59:50.427Z,138
2022-11-09T10:01:57.035Z,170
2022-11-09T10:04:04.570Z,351
2022-11-09T10:05:08.283Z,200
2022-11-09T10:07:14.576Z,186
2022-11-09T10:09:20.359Z,172
2022-11-09T10:10:23.431Z,172
2022-11-09T10:11:26.825Z,156
2022-11-09T10:12:30.307Z,135
2022-11-09T10:13:33.118Z,108
2022-11-09T10:15:39.682Z,103
2022-11-09T10:17:46.183Z,102
2022-11-09T10:18:48.916Z,101
2022-11-09T10:20:55.649Z,79
2022-11-09T10:21:58.725Z,70
2022-11-09T10:24:04.684Z,51
2022-11-09T10:26:16.388Z,44
2022-11-09T10:27:19.784Z,33
2022-11-09T10:29:28.154Z,34
2022-11-09T10:31:35.742Z,78
2022-11-09T10:32:38.575Z,108
2022-11-09T10:34:44.488Z,337
2022-11-09T10:36:49.761Z,94
2022-11-09T10:37:53.113Z,80
2022-11-09T10:38:56.286Z,79
2022-11-09T10:39:59.381Z,95
2022-11-09T10:42:05.875Z,252
2022-11-09T10:43:09.603Z,143
2022-11-09T10:44:19.567Z,96
2022-11-09T10:45:23.020Z,70
2022-11-09T10:47:28.888Z,93
2022-11-09T10:48:32.538Z,87
2022-11-09T10:49:35.749Z,85
2022-11-09T10:50:39.507Z,121
2022-11-09T10:51:42.576Z,116
2022-11-09T10:52:49.467Z,547
2022-11-09T10:53:52.910Z,199
2022-11-09T10:55:58.822Z,332
2022-11-09T10:57:08.868Z,375
2022-11-09T10:58:12.250Z,241
2022-11-09T10:59:15.982Z,903
2022-11-09T11:01:23.374Z,801
2022-11-09T11:03:30.009Z,713
2022-11-09T11:04:32.783Z,739
2022-11-09T11:06:40.032Z,882
2022-11-09T11:08:46.971Z,884
2022-11-09T11:09:50.126Z,814
2022-11-09T11:11:38.787Z,807
2022-11-09T11:12:42.622Z,744
2022-11-09T11:13:46.299Z,760
2022-11-09T11:14:49.665Z,728
2022-11-09T11:16:55.504Z,728
2022-11-09T11:17:57.667Z,681
2022-11-09T11:19:01.410Z,378
2022-11-09T11:20:04.404Z,323
2022-11-09T11:21:08.161Z,248
2022-11-09T11:23:14.944Z,328
2022-11-09T11:25:20.971Z,385
2022-11-09T11:26:24.596Z,533
2022-11-09T11:28:30.839Z,318
2022-11-09T11:29:33.969Z,245
2022-11-09T11:31:40.537Z,200
2022-11-09T11:32:52.623Z,189
2022-11-09T11:33:56.348Z,177
2022-11-09T11:36:06.952Z,164
2022-11-09T11:37:10.342Z,150
2022-11-09T11:39:15.755Z,115
2022-11-09T11:40:19.156Z,98
2022-11-09T11:42:26.416Z,89
2022-11-09T11:44:32.708Z,97
2022-11-09T11:46:46.573Z,112
2022-11-09T11:47:50.053Z,146
2022-11-09T11:49:56.401Z,189
2022-11-09T11:50:59.871Z,233
2022-11-09T11:53:06.592Z,145
2022-11-09T11:54:09.417Z,125
2022-11-09T11:56:15.651Z,111
2022-11-09T11:57:18.829Z,90
2022-11-09T11:59:26.086Z,92
2022-11-09T12:01:31.418Z,115
2022-11-09T12:02:34.632Z,245
2022-11-09T12:04:41.207Z,177
2022-11-09T12:05:44.556Z,164
2022-11-09T12:07:58.858Z,190
2022-11-09T12:10:05.076Z,117
2022-11-09T12:11:08.786Z,112
2022-11-09T12:13:14.425Z,98
2022-11-09T12:14:17.240Z,98
2022-11-09T12:16:23.604Z,208
2022-11-09T12:18:30.547Z,106
2022-11-09T12:19:38.149Z,88
2022-11-09T12:21:44.132Z,77
2022-11-09T12:22:47.235Z,76
2022-11-09T12:23:50.043Z,76
2022-11-09T12:24:53.807Z,84
2022-11-09T12:27:34.687Z,132
2022-11-09T12:29:40.881Z,144
2022-11-09T12:30:43.728Z,306
2022-11-09T12:32:50.389Z,178
2022-11-09T12:34:56.141Z,136
2022-11-09T12:35:59.170Z,329
2022-11-09T12:38:06.747Z,450
2022-11-09T12:39:09.734Z,332
2022-11-09T12:40:13.137Z,409
2022-11-09T12:41:16.345Z,389
2022-11-09T12:43:25.007Z,342
2022-11-09T12:44:28.485Z,355
2022-11-09T12:46:34.201Z,256
2022-11-09T12:48:40.526Z,222
2022-11-09T12:49:44.009Z,417
2022-11-09T12:51:59.364Z,515
2022-11-09T12:54:05.411Z,141
2022-11-09T12:56:11.424Z,237
2022-11-09T12:57:14.612Z,246
2022-11-09T12:59:20.449Z,153
2022-11-09T13:01:26.472Z,104
2022-11-09T13:02:29.582Z,85
2022-11-09T13:03:32.710Z,81
2022-11-09T13:04:36.544Z,98
2022-11-09T13:06:43.214Z,104
2022-11-09T13:07:46.618Z,126
2022-11-09T13:09:52.488Z,162
2022-11-09T13:11:59.795Z,112
2022-11-09T13:13:02.898Z,113
2022-11-09T13:15:08.941Z,97
2022-11-09T13:17:15.762Z,92
2022-11-09T13:18:18.566Z,101
2022-11-09T13:20:59.612Z,108
2022-11-09T13:22:03.569Z,99
2022-11-09T13:23:07.383Z,87
2022-11-09T13:24:26.374Z,89
2022-11-09T13:25:29.775Z,88
2022-11-09T13:27:34.942Z,80
2022-11-09T13:28:37.678Z,78
2022-11-09T13:30:44.734Z,80
2022-11-09T13:31:47.280Z,81
2022-11-09T13:33:52.472Z,83
2022-11-09T13:35:59.759Z,85
2022-11-09T13:37:03.025Z,88
2022-11-09T13:38:12.137Z,89
2022-11-09T13:39:15.277Z,90
2022-11-09T13:41:21.167Z,88
2022-11-09T13:42:24.554Z,87
2022-11-09T13:44:48.198Z,86
2022-11-09T13:46:55.550Z,82
2022-11-09T13:47:58.789Z,79
2022-11-09T13:49:01.961Z,79
2022-11-09T13:50:05.435Z,78
2022-11-09T13:52:12.645Z,75
2022-11-09T13:53:16.238Z,74
2022-11-09T13:55:22.449Z,73
2022-11-09T13:56:29.839Z,73
2022-11-09T13:58:36.401Z,70
2022-11-09T14:00:43.688Z,67
2022-11-09T14:01:47.896Z,66
2022-11-09T14:02:51.026Z,66
2022-11-09T14:03:54.869Z,64
2022-11-09T14:06:00.876Z,61
2022-11-09T14:07:05.391Z,60
2022-11-09T14:09:12.062Z,59
2022-11-09T14:10:15.495Z,59
2022-11-09T14:11:19.260Z,59
2022-11-09T14:12:22.329Z,59
2022-11-09T14:14:28.949Z,58
2022-11-09T14:15:32.131Z,56
2022-11-09T14:17:38.769Z,56
2022-11-09T14:18:41.854Z,55
2022-11-09T14:19:44.858Z,55
2022-11-09T14:20:48.355Z,54
2022-11-09T14:22:55.213Z,50
2022-11-09T14:23:58.683Z,49
2022-11-09T14:26:06.467Z,48
2022-11-09T14:28:13.245Z,42
2022-11-09T14:29:16.140Z,40
2022-11-09T14:31:23.039Z,37
2022-11-09T14:32:26.405Z,36
2022-11-09T14:34:32.715Z,34
2022-11-09T14:36:39.171Z,34
2022-11-09T14:37:42.024Z,33
2022-11-09T14:38:45.185Z,32
2022-11-09T14:39:47.742Z,30
2022-11-09T14:41:54.383Z,29
2022-11-09T14:42:57.560Z,28
2022-11-09T14:45:04.318Z,28
2022-11-09T14:47:11.153Z,28
2022-11-09T14:48:14.553Z,27
2022-11-09T14:50:22.377Z,24
2022-11-09T14:52:28.818Z,22
2022-11-09T14:53:32.350Z,22
2022-11-09T14:55:39.549Z,22
2022-11-09T14:57:46.403Z,20
2022-11-09T14:59:52.942Z,19
2022-11-09T15:00:56.023Z,18
2022-11-09T15:03:02.713Z,15
2022-11-09T15:05:10.737Z,13
2022-11-09T15:06:13.962Z,12
2022-11-09T15:07:17.172Z,12
2022-11-09T15:08:23.624Z,12
2022-11-09T15:10:30.036Z,11
2022-11-09T15:11:33.532Z,10
2022-11-09T15:12:39.173Z,10
2022-11-09T15:13:43.148Z,9
2022-11-09T15:15:49.971Z,8
2022-11-09T15:16:53.047Z,7
2022-11-09T15:18:59.778Z,6
2022-11-09T15:21:06.518Z,5
2022-11-09T15:22:09.999Z,5
2022-11-09T15:24:16.399Z,4
2022-11-09T15:25:19.685Z,4
2022-11-09T15:26:22.595Z,3
2022-11-09T15:27:26.042Z,3
2022-11-09T15:29:32.488Z,3
2022-11-09T15:30:35.922Z,3
2022-11-09T15:32:41.629Z,2
2022-11-09T15:34:48.314Z,2
2022-11-09T15:35:51.910Z,2
2022-11-09T15:37:58.856Z,1
2022-11-09T15:40:05.265Z,1
2022-11-09T15:41:08.442Z,1
2022-11-09T15:42:11.663Z,1
2022-11-09T15:43:15.095Z,0
2022-11-09T15:45:22.074Z,0
2022-11-09T15:46:25.103Z,0
2022-11-09T15:48:31.992Z,0
2022-11-09T15:50:38.257Z,0
2022-11-09T15:52:43.317Z,0
2022-11-09T15:53:46.544Z,0
2022-11-09T15:55:52.326Z,0
2022-11-09T15:57:58.555Z,0
2022-11-09T15:59:01.019Z,0
2022-11-09T16:00:21.479Z,0
2022-11-09T16:01:25.699Z,0
2022-11-09T16:03:32.202Z,0
2022-11-09T16:05:38.672Z,0
2022-11-09T16:07:52.156Z,0
2022-11-09T16:08:55.948Z,0
2022-11-09T16:11:02.158Z,0
2022-11-09T16:13:07.824Z,0
2022-11-09T16:15:14.445Z,0
2022-11-09T16:16:17.915Z,0
2022-11-09T16:18:29.669Z,0
2022-11-09T16:19:32.817Z,0
2022-11-09T16:20:35.735Z,0
2022-11-09T16:22:42.365Z,0
2022-11-09T16:23:44.553Z,0
2022-11-09T16:25:50.985Z,0
2022-11-09T16:27:56.517Z,0
2022-11-09T16:30:03.462Z,0
2022-11-09T16:31:06.830Z,0
2022-11-09T16:33:13.369Z,0
2022-11-09T16:35:35.619Z,0
2022-11-09T16:36:57.667Z,0
2022-11-09T16:38:00.840Z,0
2022-11-09T16:39:03.568Z,0
2022-11-09T16:40:07.251Z,0
2022-11-09T16:41:10.043Z,0
2022-11-09T16:43:15.478Z,0
2022-11-09T16:44:18.584Z,0
2022-11-09T16:45:21.416Z,0
2022-11-09T16:46:25.420Z,0
2022-11-09T16:48:31.386Z,0
2022-11-09T16:49:34.257Z,0
2022-11-09T16:50:37.684Z,0
2022-11-09T16:51:41.402Z,0
2022-11-09T16:53:47.183Z,0
2022-11-09T16:54:49.718Z,0
2022-11-09T16:55:52.276Z,0
2022-11-09T16:56:55.336Z,0
2022-11-09T16:59:01.125Z,0
2022-11-09T17:00:04.032Z,0
2022-11-09T17:01:25.385Z,0
2022-11-09T17:02:28.825Z,0
2022-11-09T17:03:32.295Z,0
2022-11-09T17:04:36.343Z,0
2022-11-09T17:06:42.798Z,0
2022-11-09T17:07:46.586Z,0
2022-11-09T17:08:49.718Z,0
2022-11-09T17:09:53.073Z,0
2022-11-09T17:11:59.356Z,0
2022-11-09T17:13:02.468Z,0
2022-11-09T17:14:05.841Z,0
2022-11-09T17:15:09.580Z,0
2022-11-09T17:17:24.827Z,0
2022-11-09T17:19:30.589Z,0
2022-11-09T17:20:33.306Z,0
2022-11-09T17:22:48.243Z,0
2022-11-09T17:24:55.267Z,0
2022-11-09T17:25:58.683Z,0
2022-11-09T17:27:02.039Z,0
2022-11-09T17:28:05.495Z,0
2022-11-09T17:30:12.257Z,0
2022-11-09T17:31:14.979Z,0
2022-11-09T17:32:17.698Z,0
2022-11-09T17:33:21.177Z,0
2022-11-09T17:35:28.361Z,0
2022-11-09T17:37:06.934Z,0
2022-11-09T17:38:09.962Z,0
2022-11-09T17:39:13.055Z,0
2022-11-09T17:41:19.742Z,0
2022-11-09T17:43:25.809Z,0
2022-11-09T17:45:31.853Z,0
2022-11-09T17:46:35.319Z,0
2022-11-09T17:47:38.060Z,0
2022-11-09T17:48:41.359Z,0
2022-11-09T17:50:47.503Z,0
2022-11-09T17:51:50.674Z,0
2022-11-09T17:52:53.549Z,0
2022-11-09T17:53:56.375Z,0
2022-11-09T17:56:03.197Z,0
2022-11-09T17:57:06.441Z,0
2022-11-09T17:58:10.181Z,0
2022-11-09T17:59:12.903Z,0
2022-11-09T18:01:20.106Z,0
2022-11-09T18:02:22.918Z,0
2022-11-09T18:03:25.998Z,0
2022-11-09T18:04:28.190Z,0
2022-11-09T18:06:35.136Z,0
2022-11-09T18:08:40.964Z,0
2022-11-09T18:09:44.877Z,0
2022-11-09T18:11:51.135Z,0
2022-11-09T18:13:58.191Z,0
2022-11-09T18:16:04.728Z,0
2022-11-09T18:17:07.939Z,0
2022-11-09T18:19:15.200Z,0
2022-11-09T18:21:22.114Z,0
2022-11-09T18:23:27.765Z,0
2022-11-09T18:24:30.213Z,0
2022-11-09T18:26:35.342Z,0
2022-11-09T18:28:41.925Z,0
2022-11-09T18:30:48.723Z,0
2022-11-09T18:31:52.123Z,0
2022-11-09T18:33:58.689Z,0
2022-11-09T18:36:04.020Z,0
2022-11-09T18:38:29.462Z,0
2022-11-09T18:40:36.621Z,0
2022-11-09T18:41:40.084Z,0
2022-11-09T18:43:46.088Z,0
2022-11-09T18:45:51.336Z,0
2022-11-09T18:47:57.215Z,0
2022-11-09T18:49:00.663Z,0
2022-11-09T18:51:05.967Z,0
2022-11-09T18:53:13.140Z,0
2022-11-09T18:55:18.143Z,0
2022-11-09T18:56:21.553Z,0
2022-11-09T18:58:26.221Z,0
2022-11-09T19:00:32.071Z,0
2022-11-09T19:02:37.328Z,0
2022-11-09T19:03:41.049Z,0
2022-11-09T19:05:46.223Z,0
2022-11-09T19:07:53.320Z,0
2022-11-09T19:09:59.731Z,0
2022-11-09T19:11:02.904Z,0
2022-11-09T19:13:09.485Z,0
2022-11-09T19:15:15.164Z,0
2022-11-09T19:17:21.304Z,0
2022-11-09T19:18:24.978Z,0
2022-11-09T19:20:31.286Z,0
2022-11-09T19:22:36.826Z,0
2022-11-09T19:23:40.001Z,0
2022-11-09T19:25:46.440Z,0
2022-11-09T19:27:52.835Z,0
2022-11-09T19:29:58.399Z,0
2022-11-09T19:31:02.188Z,0
2022-11-09T19:33:07.796Z,0
2022-11-09T19:35:14.661Z,0
2022-11-09T19:36:32.999Z,0
2022-11-09T19:37:35.728Z,0
2022-11-09T19:38:38.879Z,0
2022-11-09T19:40:48.686Z,0
2022-11-09T19:42:53.645Z,0
2022-11-09T19:45:00.200Z,0
2022-11-09T19:46:03.302Z,0
2022-11-09T19:48:08.566Z,0
2022-11-09T19:50:13.546Z,0
2022-11-09T19:51:16.654Z,0
2022-11-09T19:52:20.323Z,0
2022-11-09T19:53:22.777Z,0
2022-11-09T19:55:28.527Z,0
2022-11-09T19:56:32.545Z,0
2022-11-09T19:57:35.817Z,0
2022-11-09T19:58:39.155Z,0
2022-11-09T20:00:45.773Z,0
2022-11-09T20:02:51.371Z,0
2022-11-09T20:03:54.368Z,0
2022-11-09T20:06:01.242Z,0
2022-11-09T20:08:07.645Z,0
2022-11-09T20:10:16.798Z,0
2022-11-09T20:11:19.049Z,0
2022-11-09T20:13:25.594Z,0
2022-11-09T20:15:32.021Z,0
2022-11-09T20:17:38.199Z,0
2022-11-09T20:18:41.378Z,0
2022-11-09T20:20:48.173Z,0
2022-11-09T20:22:53.729Z,0
2022-11-09T20:25:00.312Z,0
2022-11-09T20:26:03.035Z,0
2022-11-09T20:28:09.203Z,0
2022-11-09T20:30:15.766Z,0
2022-11-09T20:31:18.656Z,0
2022-11-09T20:32:24.170Z,0
2022-11-09T20:33:27.483Z,0
2022-11-09T20:35:32.523Z,0
2022-11-09T20:37:38.598Z,0
2022-11-09T20:38:41.540Z,0
2022-11-09T20:40:48.165Z,0
2022-11-09T20:42:54.032Z,0
2022-11-09T20:45:00.826Z,0
2022-11-09T20:46:03.809Z,0
2022-11-09T20:48:58.267Z,0
2022-11-09T20:50:02.074Z,0
2022-11-09T20:51:05.078Z,0
2022-11-09T20:53:11.018Z,0
2022-11-09T20:55:17.883Z,0
2022-11-09T20:57:23.913Z,0
2022-11-09T20:58:26.929Z,0
2022-11-09T21:00:33.588Z,0
2022-11-09T21:02:40.643Z,0
2022-11-09T21:03:43.941Z,0
2022-11-09T21:04:47.234Z,0
2022-11-09T21:06:00.975Z,0
2022-11-09T21:08:07.430Z,0
2022-11-09T21:10:14.354Z,0
2022-11-09T21:11:17.725Z,0
2022-11-09T21:13:23.601Z,0
2022-11-09T21:15:29.846Z,0
2022-11-09T21:17:35.290Z,0
2022-11-09T21:18:38.168Z,0
2022-11-09T21:20:44.020Z,0
2022-11-09T21:22:50.454Z,0
2022-11-09T21:24:56.447Z,0
2022-11-09T21:25:59.803Z,0
2022-11-09T21:28:05.518Z,0
2022-11-09T21:30:10.815Z,0
2022-11-09T21:32:16.856Z,0
2022-11-09T21:33:19.855Z,0
2022-11-09T21:35:26.390Z,0
2022-11-09T21:37:32.729Z,0
2022-11-09T21:38:35.572Z,0
2022-11-09T21:39:38.005Z,0
2022-11-09T21:40:40.520Z,0
2022-11-09T21:42:47.438Z,0
2022-11-09T21:43:50.535Z,0
2022-11-09T21:44:54.239Z,0
2022-11-09T21:45:57.336Z,0
2022-11-09T21:48:03.580Z,0
2022-11-09T21:49:06.887Z,0
2022-11-09T21:50:14.497Z,0
2022-11-09T21:51:17.896Z,0
2022-11-09T21:53:25.763Z,0
2022-11-09T21:55:31.902Z,0
2022-11-09T21:56:35.609Z,0
2022-11-09T21:58:41.480Z,0
2022-11-09T22:00:47.112Z,0
2022-11-09T22:02:53.755Z,0
2022-11-09T22:03:56.835Z,0
2022-11-09T22:06:02.068Z,0
2022-11-09T22:08:07.818Z,0
2022-11-09T22:09:10.655Z,0
2022-11-09T22:10:13.749Z,0
2022-11-09T22:11:16.743Z,0
2022-11-09T22:13:25.050Z,0
2022-11-09T22:15:31.713Z,0
2022-11-09T22:16:33.969Z,0
2022-11-09T22:18:42.787Z,0
2022-11-09T22:20:49.832Z,0
2022-11-09T22:22:55.516Z,0
2022-11-09T22:23:58.868Z,0
2022-11-09T22:26:05.106Z,0
2022-11-09T22:28:10.525Z,0
2022-11-09T22:30:18.063Z,0
2022-11-09T22:31:21.793Z,0
2022-11-09T22:33:31.538Z,0
2022-11-09T22:35:37.902Z,0
2022-11-09T22:37:44.642Z,0
2022-11-09T22:38:48.406Z,0
2022-11-09T22:40:54.608Z,0
2022-11-09T22:43:00.587Z,0
2022-11-09T22:45:06.829Z,0
2022-11-09T22:46:10.579Z,0
2022-11-09T22:47:13.957Z,0
2022-11-09T22:48:17.115Z,0
2022-11-09T22:50:22.620Z,0
2022-11-09T22:51:25.337Z,0
2022-11-09T22:52:28.967Z,0
2022-11-09T22:53:31.784Z,0
2022-11-09T22:55:38.535Z,0
2022-11-09T22:57:43.919Z,0
2022-11-09T22:58:46.448Z,0
2022-11-09T22:59:49.796Z,0
2022-11-09T23:00:52.827Z,0
2022-11-09T23:02:59.393Z,0
2022-11-09T23:04:02.122Z,0
2022-11-09T23:05:04.592Z,0
2022-11-09T23:06:08.062Z,0
2022-11-09T23:08:15.338Z,0
2022-11-09T23:09:18.623Z,0
2022-11-09T23:10:22.004Z,0
2022-11-09T23:11:24.751Z,0
2022-11-09T23:13:30.362Z,0
2022-11-09T23:14:32.792Z,0
2022-11-09T23:15:35.887Z,0
2022-11-09T23:16:38.900Z,0
2022-11-09T23:18:44.870Z,0
2022-11-09T23:20:50.804Z,0
2022-11-09T23:21:54.236Z,0
2022-11-09T23:24:01.156Z,0